createdAt,value
2023-01-02T00:00:25.319Z,58.40
2023-01-02T00:05:28.649Z,58.07
2023-01-02T00:10:31.562Z,57.79
2023-01-02T00:15:35.718Z,57.45
2023-01-02T00:20:40.635Z,57.90
2023-01-02T00:25:43.433Z,58.54
2023-01-02T00:30:47.570Z,58.71
2023-01-02T00:35:50.489Z,59.08
2023-01-02T00:40:53.345Z,59.30
2023-01-02T00:45:57.554Z,58.86
2023-01-02T00:51:00.360Z,59.07
2023-01-02T00:56:03.142Z,59.42
2023-01-02T01:01:07.463Z,59.45
2023-01-02T01:06:11.588Z,59.73
2023-01-02T01:11:17.217Z,60.05
2023-01-02T01:16:21.825Z,60.15
2023-01-02T01:21:24.967Z,60.47
2023-01-02T01:26:27.864Z,60.79
2023-01-02T01:31:32.050Z,60.70
2023-01-02T01:36:37.521Z,60.83
2023-01-02T01:41:40.389Z,61.05
2023-01-02T01:46:47.566Z,61.18
2023-01-02T01:51:53.929Z,61.31
2023-01-02T01:57:03.486Z,61.54
2023-01-02T02:02:08.535Z,61.64
2023-01-02T02:07:11.927Z,61.74
2023-01-02T02:12:19.689Z,62.00
2023-01-02T02:17:40.969Z,62.12
2023-01-02T02:23:24.035Z,62.27
2023-01-02T02:28:53.938Z,62.62
2023-01-02T02:34:07.117Z,62.72
2023-01-02T02:39:22.391Z,63.07
2023-01-02T02:44:36.777Z,63.23
2023-01-02T02:49:50.839Z,63.57
2023-01-02T02:54:59.457Z,63.70
2023-01-02T03:00:04.712Z,64.10
2023-01-02T03:05:13.207Z,64.39
2023-01-02T03:10:23.767Z,64.68
2023-01-02T03:15:34.304Z,64.98
2023-01-02T03:20:45.203Z,65.43
2023-01-02T03:25:48.728Z,65.76
2023-01-02T03:30:55.474Z,66.31
2023-01-02T03:36:04.320Z,66.45
2023-01-02T03:41:12.386Z,66.63
2023-01-02T03:46:22.121Z,66.68
2023-01-02T03:51:26.454Z,66.99
2023-01-02T03:56:38.973Z,67.40
2023-01-02T04:01:48.072Z,67.48
2023-01-02T04:06:57.147Z,67.67
2023-01-02T04:12:04.745Z,67.80
2023-01-02T04:17:09.251Z,68.01
2023-01-02T04:22:19.662Z,68.32
2023-01-02T04:27:27.104Z,68.17
2023-01-02T04:32:34.666Z,68.17
2023-01-02T04:37:40.905Z,67.72
2023-01-02T04:42:43.711Z,67.69
2023-01-02T04:47:48.449Z,67.50
2023-01-02T04:52:52.594Z,67.30
2023-01-02T04:57:55.320Z,67.40
2023-01-02T05:02:58.323Z,67.09
2023-01-02T05:08:02.453Z,67.08
2023-01-02T05:13:05.374Z,67.17
2023-01-02T05:18:08.160Z,67.26
2023-01-02T05:23:30.837Z,67.12
2023-01-02T05:28:38.420Z,67.08
2023-01-02T05:33:41.607Z,67.02
2023-01-02T05:38:45.732Z,66.99
2023-01-02T05:43:48.550Z,67.22
2023-01-02T05:48:51.530Z,66.97
2023-01-02T05:53:56.320Z,67.01
2023-01-02T05:58:59.307Z,67.18
2023-01-02T06:04:02.508Z,67.16
2023-01-02T06:09:08.220Z,67.11
2023-01-02T06:14:11.573Z,67.06
2023-01-02T06:19:14.328Z,67.02
2023-01-02T06:24:18.440Z,67.08
2023-01-02T06:29:21.204Z,67.13
2023-01-02T06:34:24.001Z,66.96
2023-01-02T06:39:28.157Z,67.08
2023-01-02T06:44:30.891Z,66.96
2023-01-02T06:49:33.627Z,67.09
2023-01-02T06:54:37.711Z,67.07
2023-01-02T06:59:40.435Z,67.05
2023-01-02T07:04:43.196Z,66.81
2023-01-02T07:09:47.479Z,66.96
2023-01-02T07:14:51.134Z,66.93
2023-01-02T07:19:57.067Z,66.95
2023-01-02T07:25:03.827Z,66.75
2023-01-02T07:30:07.961Z,67.02
2023-01-02T07:35:11.114Z,67.02
2023-01-02T07:40:15.419Z,66.98
2023-01-02T07:45:18.330Z,67.02
2023-01-02T07:50:21.103Z,66.94
2023-01-02T07:55:25.203Z,67.06
2023-01-02T08:00:27.987Z,67.20
2023-01-02T08:05:30.792Z,67.15
2023-01-02T08:10:35.064Z,67.09
2023-01-02T08:15:37.851Z,67.31
2023-01-02T08:20:40.575Z,67.15
2023-01-02T08:25:44.685Z,56.64
2023-01-02T08:30:47.496Z,51.89
2023-01-02T08:35:50.484Z,51.28
2023-01-02T08:40:54.694Z,51.31
2023-01-02T08:45:57.532Z,50.93
2023-01-02T08:51:00.339Z,50.79
2023-01-02T08:56:24.800Z,50.32
2023-01-02T09:01:30.061Z,51.39
2023-01-02T09:06:34.512Z,52.10
2023-01-02T09:11:40.447Z,52.08
2023-01-02T09:16:43.459Z,52.25
2023-01-02T09:21:46.457Z,52.72
2023-01-02T09:26:50.649Z,52.82
2023-01-02T09:31:53.507Z,53.25
2023-01-02T09:36:56.443Z,53.63
2023-01-02T09:42:02.892Z,53.96
2023-01-02T09:47:13.171Z,54.42
2023-01-02T09:52:23.558Z,54.90
2023-01-02T09:57:39.285Z,55.37
2023-01-02T10:02:52.590Z,55.68
2023-01-02T10:08:02.959Z,55.99
2023-01-02T10:13:16.913Z,56.30
2023-01-02T10:18:24.223Z,56.64
2023-01-02T10:23:31.305Z,57.10
2023-01-02T10:28:47.927Z,57.36
2023-01-02T10:33:55.071Z,57.63
2023-01-02T10:39:00.909Z,57.76
2023-01-02T10:44:11.666Z,57.92
2023-01-02T10:49:15.284Z,57.92
2023-01-02T10:54:18.069Z,58.08
2023-01-02T10:59:24.847Z,58.25
2023-01-02T11:04:29.881Z,58.32
2023-01-02T11:09:35.910Z,58.37
2023-01-02T11:14:40.794Z,58.32
2023-01-02T11:19:46.026Z,58.51
2023-01-02T11:24:59.980Z,58.20
2023-01-02T11:30:08.185Z,58.08
2023-01-02T11:35:35.155Z,58.14
2023-01-02T11:40:38.033Z,58.33
2023-01-02T11:45:42.483Z,58.36
2023-01-02T11:50:45.415Z,58.44
2023-01-02T11:55:55.022Z,58.79
2023-01-02T12:01:06.044Z,58.91
2023-01-02T12:06:18.003Z,58.92
2023-01-02T12:11:31.731Z,58.94
2023-01-02T12:16:46.504Z,59.44
2023-01-02T12:22:02.374Z,50.88
2023-01-02T12:27:11.983Z,51.22
2023-01-02T12:32:51.386Z,51.40
2023-01-02T12:37:57.106Z,52.08
2023-01-02T12:43:39.304Z,51.82
2023-01-02T12:48:58.793Z,52.00
2023-01-02T12:54:21.253Z,51.98
2023-01-02T12:59:51.794Z,52.78
2023-01-02T13:05:03.336Z,52.99
2023-01-02T13:10:07.499Z,53.17
2023-01-02T13:15:19.274Z,53.66
2023-01-02T13:20:34.774Z,53.89
2023-01-02T13:25:45.789Z,55.05
2023-01-02T13:31:19.085Z,55.62
2023-01-02T13:36:26.652Z,55.31
2023-01-02T13:41:58.294Z,55.40
2023-01-02T13:47:11.616Z,55.48
2023-01-02T13:52:20.753Z,55.83
2023-01-02T13:57:33.559Z,56.00
2023-01-02T14:02:36.556Z,56.05
2023-01-02T14:07:49.173Z,56.08
2023-01-02T14:12:55.804Z,56.57
2023-01-02T14:18:04.320Z,52.82
2023-01-02T14:23:11.276Z,52.21
2023-01-02T14:28:22.653Z,52.53
2023-01-02T14:33:32.924Z,53.35
2023-01-02T14:38:42.071Z,53.92
2023-01-02T14:43:45.895Z,54.17
2023-01-02T14:48:55.920Z,54.73
2023-01-02T14:54:03.043Z,55.14
2023-01-02T14:59:08.227Z,55.45
2023-01-02T15:04:19.771Z,55.70
2023-01-02T15:09:30.557Z,56.29
2023-01-02T15:14:33.389Z,56.43
2023-01-02T15:19:42.605Z,56.72
2023-01-02T15:24:50.796Z,56.95
2023-01-02T15:29:55.599Z,57.10
2023-01-02T15:35:10.705Z,57.26
2023-01-02T15:40:18.062Z,57.25
2023-01-02T15:45:20.906Z,57.43
2023-01-02T15:50:26.010Z,57.61
2023-01-02T15:55:36.203Z,57.64
2023-01-02T16:00:40.617Z,57.68
2023-01-02T16:05:49.539Z,58.09
2023-01-02T16:11:01.235Z,58.20
2023-01-02T16:16:16.191Z,58.25
2023-01-02T16:21:20.452Z,58.41
2023-01-02T16:26:31.614Z,58.40
2023-01-02T16:31:57.871Z,58.45
2023-01-02T16:37:12.006Z,58.32
2023-01-02T16:42:36.436Z,58.48
2023-01-02T16:47:41.567Z,58.70
2023-01-02T16:52:44.602Z,58.55
2023-01-02T16:57:50.404Z,58.77
2023-01-02T17:02:53.492Z,58.79
2023-01-02T17:07:56.416Z,59.20
2023-01-02T17:13:00.514Z,59.52
2023-01-02T17:18:03.388Z,61.08
2023-01-02T17:23:07.211Z,62.10
2023-01-02T17:28:12.060Z,62.49
2023-01-02T17:33:14.941Z,62.54
2023-01-02T17:38:19.686Z,62.22
2023-01-02T17:43:23.948Z,62.09
2023-01-02T17:48:26.787Z,61.98
2023-01-02T17:53:29.615Z,61.94
2023-01-02T17:58:33.798Z,62.08
2023-01-02T18:03:38.100Z,61.90
2023-01-02T18:08:41.102Z,61.89
2023-01-02T18:13:48.667Z,61.96
2023-01-02T18:18:53.221Z,61.91
2023-01-02T18:23:59.521Z,62.05
2023-01-02T18:29:09.634Z,61.71
2023-01-02T18:34:45.604Z,61.90
2023-01-02T18:39:43.657Z,62.14
2023-01-02T18:44:48.516Z,62.15
2023-01-02T18:49:51.437Z,61.81
2023-01-02T18:55:24.880Z,61.49
2023-01-02T19:00:30.922Z,61.38
2023-01-02T19:05:36.027Z,61.37
2023-01-02T19:10:41.176Z,61.20
2023-01-02T19:15:48.795Z,61.12
2023-01-02T19:20:58.425Z,61.00
2023-01-02T19:26:13.843Z,60.64
2023-01-02T19:31:18.030Z,60.62
2023-01-02T19:36:25.497Z,60.34
2023-01-02T19:41:45.611Z,60.15
2023-01-02T19:46:49.675Z,59.93
2023-01-02T19:51:52.417Z,59.74
2023-01-02T19:56:55.352Z,59.43
2023-01-02T20:01:59.820Z,59.17
2023-01-02T20:07:02.897Z,59.09
2023-01-02T20:12:24.079Z,58.91
2023-01-02T20:17:28.849Z,58.71
2023-01-02T20:22:32.408Z,58.85
2023-01-02T20:27:35.270Z,58.54
2023-01-02T20:32:39.593Z,58.54
2023-01-02T20:37:42.482Z,58.91
2023-01-02T20:42:46.533Z,58.36
2023-01-02T20:47:50.630Z,58.37
2023-01-02T20:52:56.946Z,58.14
2023-01-02T20:58:00.233Z,57.96
2023-01-02T21:03:04.851Z,57.92
2023-01-02T21:08:08.057Z,57.76
2023-01-02T21:13:11.773Z,57.79
2023-01-02T21:18:18.581Z,57.58
2023-01-02T21:23:22.746Z,57.65
2023-01-02T21:28:26.753Z,57.40
2023-01-02T21:33:31.199Z,57.37
2023-01-02T21:38:35.363Z,57.43
2023-01-02T21:43:38.156Z,57.26
2023-01-02T21:48:42.499Z,57.42
2023-01-02T21:53:45.789Z,57.14
2023-01-02T21:58:48.794Z,57.44
2023-01-02T22:03:56.851Z,57.40
2023-01-02T22:09:01.042Z,57.27
2023-01-02T22:14:03.828Z,57.37
2023-01-02T22:19:07.944Z,57.27
2023-01-02T22:24:10.812Z,57.07
2023-01-02T22:29:15.585Z,57.11
2023-01-02T22:34:21.069Z,57.15
2023-01-02T22:39:28.629Z,57.15
2023-01-02T22:44:32.196Z,57.15
2023-01-02T22:49:40.300Z,57.28
2023-01-02T22:54:43.074Z,57.12
2023-01-02T22:59:45.868Z,57.45
2023-01-02T23:04:50.932Z,57.27
2023-01-02T23:09:53.860Z,57.55
2023-01-02T23:14:56.629Z,57.60
2023-01-02T23:20:00.743Z,57.65
2023-01-02T23:25:04.609Z,57.43
2023-01-02T23:30:08.338Z,57.51
2023-01-02T23:35:12.581Z,57.49
2023-01-02T23:40:15.481Z,57.58
2023-01-02T23:45:18.212Z,57.44
2023-01-02T23:50:22.325Z,57.43
2023-01-02T23:55:25.047Z,57.35
